sensor_id;sensor_type;location;lat;lon;timestamp;P1;durP1;ratioP1;P2;durP2;ratioP2
50976;SDS011;36992;48.200;12.418;2023-11-19T00:00:46;1.85;;;0.30;;
50976;SDS011;36992;48.200;12.418;2023-11-19T00:03:12;1.48;;;0.30;;
50976;SDS011;36992;48.200;12.418;2023-11-19T00:05:39;0.30;;;0.10;;
50976;SDS011;36992;48.200;12.418;2023-11-19T00:08:07;1.17;;;0.30;;
50976;SDS011;36992;48.200;12.418;2023-11-19T00:10:33;1.52;;;0.40;;
50976;SDS011;36992;48.200;12.418;2023-11-19T00:13:00;0.50;;;0.10;;
50976;SDS011;36992;48.200;12.418;2023-11-19T00:15:27;0.57;;;0.10;;
50976;SDS011;36992;48.200;12.418;2023-11-19T00:17:54;0.50;;;0.10;;
50976;SDS011;36992;48.200;12.418;2023-11-19T00:20:20;0.50;;;0.20;;
50976;SDS011;36992;48.200;12.418;2023-11-19T00:22:48;0.80;;;0.20;;
50976;SDS011;36992;48.200;12.418;2023-11-19T00:25:17;0.40;;;0.20;;
50976;SDS011;36992;48.200;12.418;2023-11-19T00:27:43;0.73;;;0.28;;
50976;SDS011;36992;48.200;12.418;2023-11-19T00:30:10;1.63;;;0.30;;
50976;SDS011;36992;48.200;12.418;2023-11-19T00:32:37;1.15;;;0.20;;
50976;SDS011;36992;48.200;12.418;2023-11-19T00:35:04;0.50;;;0.20;;
50976;SDS011;36992;48.200;12.418;2023-11-19T00:37:32;0.25;;;0.10;;
50976;SDS011;36992;48.200;12.418;2023-11-19T00:39:59;0.77;;;0.20;;
50976;SDS011;36992;48.200;12.418;2023-11-19T00:42:27;0.45;;;0.20;;
50976;SDS011;36992;48.200;12.418;2023-11-19T00:44:53;0.40;;;0.10;;
50976;SDS011;36992;48.200;12.418;2023-11-19T00:47:20;0.50;;;0.20;;
50976;SDS011;36992;48.200;12.418;2023-11-19T00:49:46;1.10;;;0.20;;
50976;SDS011;36992;48.200;12.418;2023-11-19T00:52:15;0.17;;;0.10;;
50976;SDS011;36992;48.200;12.418;2023-11-19T00:54:41;0.40;;;0.20;;
50976;SDS011;36992;48.200;12.418;2023-11-19T00:57:08;0.40;;;0.28;;
50976;SDS011;36992;48.200;12.418;2023-11-19T00:59:36;0.57;;;0.10;;
50976;SDS011;36992;48.200;12.418;2023-11-19T01:02:02;0.55;;;0.20;;
50976;SDS011;36992;48.200;12.418;2023-11-19T01:04:32;0.57;;;0.10;;
50976;SDS011;36992;48.200;12.418;2023-11-19T01:06:59;0.70;;;0.10;;
50976;SDS011;36992;48.200;12.418;2023-11-19T01:09:28;0.80;;;0.40;;
50976;SDS011;36992;48.200;12.418;2023-11-19T01:11:57;0.50;;;0.13;;
50976;SDS011;36992;48.200;12.418;2023-11-19T01:14:23;0.40;;;0.10;;
50976;SDS011;36992;48.200;12.418;2023-11-19T01:16:51;0.13;;;0.10;;
50976;SDS011;36992;48.200;12.418;2023-11-19T01:19:19;0.40;;;0.20;;
50976;SDS011;36992;48.200;12.418;2023-11-19T01:21:46;0.47;;;0.20;;
50976;SDS011;36992;48.200;12.418;2023-11-19T01:24:13;1.20;;;0.20;;
50976;SDS011;36992;48.200;12.418;2023-11-19T01:26:39;0.63;;;0.20;;
50976;SDS011;36992;48.200;12.418;2023-11-19T01:29:10;1.42;;;0.28;;
50976;SDS011;36992;48.200;12.418;2023-11-19T01:31:38;1.73;;;0.30;;
50976;SDS011;36992;48.200;12.418;2023-11-19T01:34:06;0.80;;;0.20;;
50976;SDS011;36992;48.200;12.418;2023-11-19T01:36:33;0.47;;;0.20;;
50976;SDS011;36992;48.200;12.418;2023-11-19T01:38:59;0.38;;;0.10;;
50976;SDS011;36992;48.200;12.418;2023-11-19T01:41:26;0.55;;;0.20;;
50976;SDS011;36992;48.200;12.418;2023-11-19T01:43:53;0.88;;;0.20;;
50976;SDS011;36992;48.200;12.418;2023-11-19T01:46:19;1.65;;;0.20;;
50976;SDS011;36992;48.200;12.418;2023-11-19T01:48:46;0.30;;;0.15;;
50976;SDS011;36992;48.200;12.418;2023-11-19T01:51:14;0.35;;;0.10;;
50976;SDS011;36992;48.200;12.418;2023-11-19T01:53:42;0.57;;;0.20;;
50976;SDS011;36992;48.200;12.418;2023-11-19T01:56:10;0.60;;;0.20;;
50976;SDS011;36992;48.200;12.418;2023-11-19T01:58:39;2.83;;;0.20;;
50976;SDS011;36992;48.200;12.418;2023-11-19T02:01:07;0.60;;;0.20;;
50976;SDS011;36992;48.200;12.418;2023-11-19T02:03:36;0.75;;;0.20;;
50976;SDS011;36992;48.200;12.418;2023-11-19T02:06:03;0.60;;;0.22;;
50976;SDS011;36992;48.200;12.418;2023-11-19T02:08:32;0.50;;;0.20;;
50976;SDS011;36992;48.200;12.418;2023-11-19T02:10:59;0.73;;;0.20;;
50976;SDS011;36992;48.200;12.418;2023-11-19T02:13:25;0.88;;;0.20;;
50976;SDS011;36992;48.200;12.418;2023-11-19T02:15:53;0.60;;;0.17;;
50976;SDS011;36992;48.200;12.418;2023-11-19T02:18:21;0.30;;;0.15;;
50976;SDS011;36992;48.200;12.418;2023-11-19T02:20:48;0.60;;;0.30;;
50976;SDS011;36992;48.200;12.418;2023-11-19T02:23:15;0.60;;;0.10;;
50976;SDS011;36992;48.200;12.418;2023-11-19T02:25:44;0.40;;;0.20;;
50976;SDS011;36992;48.200;12.418;2023-11-19T02:28:16;0.63;;;0.20;;
50976;SDS011;36992;48.200;12.418;2023-11-19T02:30:43;0.40;;;0.20;;
50976;SDS011;36992;48.200;12.418;2023-11-19T02:33:09;0.45;;;0.20;;
50976;SDS011;36992;48.200;12.418;2023-11-19T02:35:36;0.20;;;0.10;;
50976;SDS011;36992;48.200;12.418;2023-11-19T02:38:02;0.60;;;0.10;;
50976;SDS011;36992;48.200;12.418;2023-11-19T02:40:31;0.45;;;0.20;;
50976;SDS011;36992;48.200;12.418;2023-11-19T02:42:58;0.75;;;0.20;;
50976;SDS011;36992;48.200;12.418;2023-11-19T02:45:26;1.10;;;0.20;;
50976;SDS011;36992;48.200;12.418;2023-11-19T02:47:56;0.63;;;0.20;;
50976;SDS011;36992;48.200;12.418;2023-11-19T02:50:22;0.60;;;0.30;;
50976;SDS011;36992;48.200;12.418;2023-11-19T02:52:51;0.75;;;0.35;;
50976;SDS011;36992;48.200;12.418;2023-11-19T02:55:19;0.70;;;0.30;;
50976;SDS011;36992;48.200;12.418;2023-11-19T02:57:45;0.98;;;0.40;;
50976;SDS011;36992;48.200;12.418;2023-11-19T03:00:14;0.50;;;0.30;;
50976;SDS011;36992;48.200;12.418;2023-11-19T03:02:42;0.38;;;0.20;;
50976;SDS011;36992;48.200;12.418;2023-11-19T03:05:11;0.57;;;0.20;;
50976;SDS011;36992;48.200;12.418;2023-11-19T03:07:39;0.52;;;0.30;;
50976;SDS011;36992;48.200;12.418;2023-11-19T03:10:07;0.75;;;0.30;;
50976;SDS011;36992;48.200;12.418;2023-11-19T03:12:37;0.40;;;0.20;;
50976;SDS011;36992;48.200;12.418;2023-11-19T03:15:04;0.32;;;0.20;;
50976;SDS011;36992;48.200;12.418;2023-11-19T03:17:31;0.40;;;0.20;;
50976;SDS011;36992;48.200;12.418;2023-11-19T03:20:00;0.60;;;0.20;;
50976;SDS011;36992;48.200;12.418;2023-11-19T03:22:27;0.45;;;0.20;;
50976;SDS011;36992;48.200;12.418;2023-11-19T03:24:53;0.38;;;0.13;;
50976;SDS011;36992;48.200;12.418;2023-11-19T03:27:20;0.47;;;0.20;;
50976;SDS011;36992;48.200;12.418;2023-11-19T03:29:46;0.68;;;0.20;;
50976;SDS011;36992;48.200;12.418;2023-11-19T03:32:13;0.65;;;0.22;;
50976;SDS011;36992;48.200;12.418;2023-11-19T03:34:40;0.35;;;0.20;;
50976;SDS011;36992;48.200;12.418;2023-11-19T03:37:08;0.38;;;0.20;;
50976;SDS011;36992;48.200;12.418;2023-11-19T03:39:34;0.93;;;0.25;;
50976;SDS011;36992;48.200;12.418;2023-11-19T03:42:01;2.30;;;0.40;;
50976;SDS011;36992;48.200;12.418;2023-11-19T03:44:28;0.75;;;0.30;;
50976;SDS011;36992;48.200;12.418;2023-11-19T03:46:54;2.05;;;0.50;;
50976;SDS011;36992;48.200;12.418;2023-11-19T03:49:21;0.95;;;0.38;;
50976;SDS011;36992;48.200;12.418;2023-11-19T03:51:49;1.60;;;0.50;;
50976;SDS011;36992;48.200;12.418;2023-11-19T03:54:16;1.02;;;0.30;;
50976;SDS011;36992;48.200;12.418;2023-11-19T03:56:43;0.75;;;0.43;;
50976;SDS011;36992;48.200;12.418;2023-11-19T03:59:09;0.55;;;0.38;;
50976;SDS011;36992;48.200;12.418;2023-11-19T04:01:36;0.50;;;0.30;;
50976;SDS011;36992;48.200;12.418;2023-11-19T04:04:03;0.77;;;0.35;;
50976;SDS011;36992;48.200;12.418;2023-11-19T04:06:30;0.70;;;0.40;;
50976;SDS011;36992;48.200;12.418;2023-11-19T04:08:56;0.70;;;0.30;;
50976;SDS011;36992;48.200;12.418;2023-11-19T04:11:24;0.55;;;0.30;;
50976;SDS011;36992;48.200;12.418;2023-11-19T04:13:51;0.55;;;0.20;;
50976;SDS011;36992;48.200;12.418;2023-11-19T04:16:17;0.45;;;0.30;;
50976;SDS011;36992;48.200;12.418;2023-11-19T04:18:44;0.98;;;0.30;;
50976;SDS011;36992;48.200;12.418;2023-11-19T04:21:10;0.63;;;0.20;;
50976;SDS011;36992;48.200;12.418;2023-11-19T04:23:36;0.50;;;0.20;;
50976;SDS011;36992;48.200;12.418;2023-11-19T04:26:03;0.50;;;0.30;;
50976;SDS011;36992;48.200;12.418;2023-11-19T04:28:33;0.80;;;0.40;;
50976;SDS011;36992;48.200;12.418;2023-11-19T04:30:59;0.90;;;0.30;;
50976;SDS011;36992;48.200;12.418;2023-11-19T04:33:26;0.50;;;0.30;;
50976;SDS011;36992;48.200;12.418;2023-11-19T04:35:52;1.08;;;0.55;;
50976;SDS011;36992;48.200;12.418;2023-11-19T04:38:19;0.82;;;0.30;;
50976;SDS011;36992;48.200;12.418;2023-11-19T04:40:45;0.40;;;0.20;;
50976;SDS011;36992;48.200;12.418;2023-11-19T04:43:11;0.68;;;0.30;;
50976;SDS011;36992;48.200;12.418;2023-11-19T04:45:40;0.50;;;0.30;;
50976;SDS011;36992;48.200;12.418;2023-11-19T04:48:06;0.77;;;0.30;;
50976;SDS011;36992;48.200;12.418;2023-11-19T04:50:34;0.50;;;0.30;;
50976;SDS011;36992;48.200;12.418;2023-11-19T04:53:00;0.52;;;0.22;;
50976;SDS011;36992;48.200;12.418;2023-11-19T04:55:28;0.40;;;0.20;;
50976;SDS011;36992;48.200;12.418;2023-11-19T04:57:54;0.50;;;0.20;;
50976;SDS011;36992;48.200;12.418;2023-11-19T05:00:21;0.65;;;0.20;;
50976;SDS011;36992;48.200;12.418;2023-11-19T05:02:49;1.27;;;0.30;;
50976;SDS011;36992;48.200;12.418;2023-11-19T05:05:16;1.00;;;0.30;;
50976;SDS011;36992;48.200;12.418;2023-11-19T05:07:42;1.30;;;0.38;;
50976;SDS011;36992;48.200;12.418;2023-11-19T05:10:09;0.68;;;0.30;;
50976;SDS011;36992;48.200;12.418;2023-11-19T05:12:36;0.30;;;0.17;;
50976;SDS011;36992;48.200;12.418;2023-11-19T05:15:02;1.00;;;0.40;;
50976;SDS011;36992;48.200;12.418;2023-11-19T05:17:29;0.90;;;0.30;;
50976;SDS011;36992;48.200;12.418;2023-11-19T05:19:57;0.45;;;0.30;;
50976;SDS011;36992;48.200;12.418;2023-11-19T05:22:24;0.82;;;0.28;;
50976;SDS011;36992;48.200;12.418;2023-11-19T05:24:51;1.00;;;0.40;;
50976;SDS011;36992;48.200;12.418;2023-11-19T05:27:17;1.70;;;0.55;;
50976;SDS011;36992;48.200;12.418;2023-11-19T05:29:45;0.93;;;0.35;;
50976;SDS011;36992;48.200;12.418;2023-11-19T05:32:11;0.85;;;0.30;;
50976;SDS011;36992;48.200;12.418;2023-11-19T05:34:38;0.70;;;0.30;;
50976;SDS011;36992;48.200;12.418;2023-11-19T05:37:05;0.80;;;0.30;;
50976;SDS011;36992;48.200;12.418;2023-11-19T05:39:32;0.52;;;0.30;;
50976;SDS011;36992;48.200;12.418;2023-11-19T05:41:59;0.70;;;0.50;;
50976;SDS011;36992;48.200;12.418;2023-11-19T05:44:26;0.80;;;0.47;;
50976;SDS011;36992;48.200;12.418;2023-11-19T05:46:52;0.50;;;0.22;;
50976;SDS011;36992;48.200;12.418;2023-11-19T05:49:19;0.60;;;0.30;;
50976;SDS011;36992;48.200;12.418;2023-11-19T05:51:45;6.03;;;5.43;;
50976;SDS011;36992;48.200;12.418;2023-11-19T05:54:13;5.10;;;4.25;;
50976;SDS011;36992;48.200;12.418;2023-11-19T05:56:40;3.88;;;2.70;;
50976;SDS011;36992;48.200;12.418;2023-11-19T05:59:07;2.33;;;1.60;;
50976;SDS011;36992;48.200;12.418;2023-11-19T06:01:40;1.52;;;0.80;;
50976;SDS011;36992;48.200;12.418;2023-11-19T06:04:07;1.23;;;0.70;;
50976;SDS011;36992;48.200;12.418;2023-11-19T06:06:33;1.30;;;0.60;;
50976;SDS011;36992;48.200;12.418;2023-11-19T06:09:00;1.27;;;0.70;;
50976;SDS011;36992;48.200;12.418;2023-11-19T06:11:31;1.05;;;0.60;;
50976;SDS011;36992;48.200;12.418;2023-11-19T06:13:57;0.77;;;0.35;;
50976;SDS011;36992;48.200;12.418;2023-11-19T06:16:24;1.23;;;0.50;;
50976;SDS011;36992;48.200;12.418;2023-11-19T06:18:50;0.70;;;0.20;;
50976;SDS011;36992;48.200;12.418;2023-11-19T06:21:18;0.70;;;0.30;;
50976;SDS011;36992;48.200;12.418;2023-11-19T06:23:45;2.00;;;0.43;;
50976;SDS011;36992;48.200;12.418;2023-11-19T06:26:11;0.70;;;0.40;;
50976;SDS011;36992;48.200;12.418;2023-11-19T06:28:40;1.02;;;0.40;;
50976;SDS011;36992;48.200;12.418;2023-11-19T06:31:07;0.55;;;0.35;;
50976;SDS011;36992;48.200;12.418;2023-11-19T06:33:33;1.15;;;0.45;;
50976;SDS011;36992;48.200;12.418;2023-11-19T06:36:00;0.80;;;0.40;;
50976;SDS011;36992;48.200;12.418;2023-11-19T06:38:26;0.50;;;0.30;;
50976;SDS011;36992;48.200;12.418;2023-11-19T06:40:53;0.65;;;0.35;;
50976;SDS011;36992;48.200;12.418;2023-11-19T06:43:19;0.60;;;0.30;;
50976;SDS011;36992;48.200;12.418;2023-11-19T06:45:48;0.90;;;0.40;;
50976;SDS011;36992;48.200;12.418;2023-11-19T06:48:14;0.98;;;0.50;;
50976;SDS011;36992;48.200;12.418;2023-11-19T06:50:41;0.80;;;0.40;;
50976;SDS011;36992;48.200;12.418;2023-11-19T06:53:07;1.30;;;0.50;;
50976;SDS011;36992;48.200;12.418;2023-11-19T06:55:35;1.13;;;0.40;;
50976;SDS011;36992;48.200;12.418;2023-11-19T06:58:02;0.98;;;0.50;;
50976;SDS011;36992;48.200;12.418;2023-11-19T07:00:28;0.60;;;0.35;;
50976;SDS011;36992;48.200;12.418;2023-11-19T07:02:58;1.50;;;0.70;;
50976;SDS011;36992;48.200;12.418;2023-11-19T07:05:25;1.73;;;0.73;;
50976;SDS011;36992;48.200;12.418;2023-11-19T07:07:52;1.00;;;0.60;;
50976;SDS011;36992;48.200;12.418;2023-11-19T07:10:19;1.02;;;0.60;;
50976;SDS011;36992;48.200;12.418;2023-11-19T07:12:46;2.10;;;0.57;;
50976;SDS011;36992;48.200;12.418;2023-11-19T07:15:14;1.13;;;0.50;;
50976;SDS011;36992;48.200;12.418;2023-11-19T07:17:42;1.13;;;0.50;;
50976;SDS011;36992;48.200;12.418;2023-11-19T07:20:11;1.95;;;0.73;;
50976;SDS011;36992;48.200;12.418;2023-11-19T07:22:41;1.38;;;0.85;;
50976;SDS011;36992;48.200;12.418;2023-11-19T07:25:10;1.80;;;1.20;;
50976;SDS011;36992;48.200;12.418;2023-11-19T07:27:37;1.48;;;0.80;;
50976;SDS011;36992;48.200;12.418;2023-11-19T07:30:04;1.33;;;0.82;;
50976;SDS011;36992;48.200;12.418;2023-11-19T07:32:32;0.80;;;0.50;;
50976;SDS011;36992;48.200;12.418;2023-11-19T07:34:59;0.95;;;0.50;;
50976;SDS011;36992;48.200;12.418;2023-11-19T07:37:26;1.35;;;0.70;;
50976;SDS011;36992;48.200;12.418;2023-11-19T07:39:53;1.25;;;0.55;;
50976;SDS011;36992;48.200;12.418;2023-11-19T07:42:19;1.48;;;0.75;;
50976;SDS011;36992;48.200;12.418;2023-11-19T07:44:46;1.52;;;0.75;;
50976;SDS011;36992;48.200;12.418;2023-11-19T07:47:12;1.40;;;0.70;;
50976;SDS011;36992;48.200;12.418;2023-11-19T07:49:39;1.23;;;0.60;;
50976;SDS011;36992;48.200;12.418;2023-11-19T07:52:05;1.00;;;0.60;;
50976;SDS011;36992;48.200;12.418;2023-11-19T07:54:33;1.17;;;0.68;;
50976;SDS011;36992;48.200;12.418;2023-11-19T07:57:00;1.48;;;0.70;;
50976;SDS011;36992;48.200;12.418;2023-11-19T07:59:26;3.05;;;1.00;;
50976;SDS011;36992;48.200;12.418;2023-11-19T08:01:53;3.00;;;1.42;;
50976;SDS011;36992;48.200;12.418;2023-11-19T08:04:19;1.65;;;0.70;;
50976;SDS011;36992;48.200;12.418;2023-11-19T08:06:46;2.30;;;1.30;;
50976;SDS011;36992;48.200;12.418;2023-11-19T08:09:12;14.27;;;8.88;;
50976;SDS011;36992;48.200;12.418;2023-11-19T08:11:41;7.97;;;6.03;;
50976;SDS011;36992;48.200;12.418;2023-11-19T08:14:07;4.43;;;2.30;;
50976;SDS011;36992;48.200;12.418;2023-11-19T08:16:34;3.15;;;1.63;;
50976;SDS011;36992;48.200;12.418;2023-11-19T08:19:01;2.08;;;1.13;;
50976;SDS011;36992;48.200;12.418;2023-11-19T08:21:28;1.77;;;0.75;;
50976;SDS011;36992;48.200;12.418;2023-11-19T08:23:54;1.60;;;0.88;;
50976;SDS011;36992;48.200;12.418;2023-11-19T08:26:21;1.60;;;0.95;;
50976;SDS011;36992;48.200;12.418;2023-11-19T08:28:49;1.35;;;0.70;;
50976;SDS011;36992;48.200;12.418;2023-11-19T08:31:17;1.15;;;0.50;;
50976;SDS011;36992;48.200;12.418;2023-11-19T08:33:43;0.82;;;0.50;;
50976;SDS011;36992;48.200;12.418;2023-11-19T08:36:14;1.58;;;0.80;;
50976;SDS011;36992;48.200;12.418;2023-11-19T08:38:41;1.40;;;0.80;;
50976;SDS011;36992;48.200;12.418;2023-11-19T08:41:08;1.95;;;0.52;;
50976;SDS011;36992;48.200;12.418;2023-11-19T08:43:35;2.00;;;0.50;;
50976;SDS011;36992;48.200;12.418;2023-11-19T08:46:03;1.27;;;0.50;;
50976;SDS011;36992;48.200;12.418;2023-11-19T08:48:30;0.70;;;0.40;;
50976;SDS011;36992;48.200;12.418;2023-11-19T08:50:56;0.90;;;0.38;;
50976;SDS011;36992;48.200;12.418;2023-11-19T08:53:23;1.15;;;0.45;;
50976;SDS011;36992;48.200;12.418;2023-11-19T08:55:49;0.90;;;0.38;;
50976;SDS011;36992;48.200;12.418;2023-11-19T08:58:16;1.58;;;0.70;;
50976;SDS011;36992;48.200;12.418;2023-11-19T09:00:43;1.73;;;0.50;;
50976;SDS011;36992;48.200;12.418;2023-11-19T09:03:11;0.90;;;0.45;;
50976;SDS011;36992;48.200;12.418;2023-11-19T09:05:37;0.65;;;0.30;;
50976;SDS011;36992;48.200;12.418;2023-11-19T09:08:04;1.33;;;0.40;;
50976;SDS011;36992;48.200;12.418;2023-11-19T09:10:31;0.85;;;0.40;;
50976;SDS011;36992;48.200;12.418;2023-11-19T09:12:57;0.73;;;0.35;;
50976;SDS011;36992;48.200;12.418;2023-11-19T09:15:24;0.75;;;0.20;;
50976;SDS011;36992;48.200;12.418;2023-11-19T09:17:51;0.55;;;0.30;;
50976;SDS011;36992;48.200;12.418;2023-11-19T09:20:19;1.42;;;0.40;;
50976;SDS011;36992;48.200;12.418;2023-11-19T09:22:45;0.88;;;0.32;;
50976;SDS011;36992;48.200;12.418;2023-11-19T09:25:12;0.70;;;0.20;;
50976;SDS011;36992;48.200;12.418;2023-11-19T09:27:41;0.60;;;0.20;;
50976;SDS011;36992;48.200;12.418;2023-11-19T09:30:08;0.25;;;0.10;;
50976;SDS011;36992;48.200;12.418;2023-11-19T09:32:35;0.30;;;0.10;;
50976;SDS011;36992;48.200;12.418;2023-11-19T09:35:02;0.63;;;0.10;;
50976;SDS011;36992;48.200;12.418;2023-11-19T09:37:31;0.30;;;0.10;;
50976;SDS011;36992;48.200;12.418;2023-11-19T09:39:57;0.13;;;0.00;;
50976;SDS011;36992;48.200;12.418;2023-11-19T09:42:24;0.10;;;0.05;;
50976;SDS011;36992;48.200;12.418;2023-11-19T09:44:51;0.10;;;0.10;;
50976;SDS011;36992;48.200;12.418;2023-11-19T09:47:20;0.20;;;0.10;;
50976;SDS011;36992;48.200;12.418;2023-11-19T09:49:48;0.20;;;0.00;;
50976;SDS011;36992;48.200;12.418;2023-11-19T09:52:15;0.10;;;0.00;;
50976;SDS011;36992;48.200;12.418;2023-11-19T09:54:43;0.00;;;0.00;;
50976;SDS011;36992;48.200;12.418;2023-11-19T09:57:10;0.05;;;0.00;;
50976;SDS011;36992;48.200;12.418;2023-11-19T09:59:42;0.10;;;0.08;;
50976;SDS011;36992;48.200;12.418;2023-11-19T10:02:10;0.05;;;0.00;;
50976;SDS011;36992;48.200;12.418;2023-11-19T10:04:37;0.20;;;0.00;;
50976;SDS011;36992;48.200;12.418;2023-11-19T10:07:05;0.10;;;0.00;;
50976;SDS011;36992;48.200;12.418;2023-11-19T10:09:32;0.15;;;0.00;;
50976;SDS011;36992;48.200;12.418;2023-11-19T10:12:01;0.38;;;0.00;;
50976;SDS011;36992;48.200;12.418;2023-11-19T10:14:33;0.20;;;0.03;;
50976;SDS011;36992;48.200;12.418;2023-11-19T10:17:09;0.10;;;0.00;;
50976;SDS011;36992;48.200;12.418;2023-11-19T10:19:40;4.55;;;0.10;;
50976;SDS011;36992;48.200;12.418;2023-11-19T10:22:07;0.57;;;0.00;;
50976;SDS011;36992;48.200;12.418;2023-11-19T10:24:34;0.10;;;0.00;;
50976;SDS011;36992;48.200;12.418;2023-11-19T10:27:04;0.25;;;0.00;;
50976;SDS011;36992;48.200;12.418;2023-11-19T10:32:40;0.52;;;0.00;;
50976;SDS011;36992;48.200;12.418;2023-11-19T10:35:14;0.35;;;0.10;;
50976;SDS011;36992;48.200;12.418;2023-11-19T10:41:03;0.05;;;0.00;;
50976;SDS011;36992;48.200;12.418;2023-11-19T10:43:41;0.10;;;0.00;;
50976;SDS011;36992;48.200;12.418;2023-11-19T10:46:09;0.00;;;0.00;;
50976;SDS011;36992;48.200;12.418;2023-11-19T10:48:37;0.10;;;0.00;;
50976;SDS011;36992;48.200;12.418;2023-11-19T10:51:05;0.08;;;0.00;;
50976;SDS011;36992;48.200;12.418;2023-11-19T10:53:36;0.10;;;0.00;;
50976;SDS011;36992;48.200;12.418;2023-11-19T10:56:30;0.43;;;0.28;;
50976;SDS011;36992;48.200;12.418;2023-11-19T10:59:02;0.65;;;0.00;;
50976;SDS011;36992;48.200;12.418;2023-11-19T11:01:32;0.20;;;0.08;;
50976;SDS011;36992;48.200;12.418;2023-11-19T11:04:05;0.57;;;0.10;;
50976;SDS011;36992;48.200;12.418;2023-11-19T11:06:39;0.93;;;0.10;;
50976;SDS011;36992;48.200;12.418;2023-11-19T11:09:06;0.00;;;0.00;;
50976;SDS011;36992;48.200;12.418;2023-11-19T11:11:37;0.00;;;0.00;;
50976;SDS011;36992;48.200;12.418;2023-11-19T11:14:05;0.00;;;0.00;;
50976;SDS011;36992;48.200;12.418;2023-11-19T11:16:34;0.75;;;0.10;;
50976;SDS011;36992;48.200;12.418;2023-11-19T11:19:03;0.50;;;0.10;;
50976;SDS011;36992;48.200;12.418;2023-11-19T11:21:30;0.10;;;0.00;;
50976;SDS011;36992;48.200;12.418;2023-11-19T11:24:03;0.52;;;0.10;;
50976;SDS011;36992;48.200;12.418;2023-11-19T11:26:56;0.13;;;0.03;;
50976;SDS011;36992;48.200;12.418;2023-11-19T11:29:37;0.10;;;0.00;;
50976;SDS011;36992;48.200;12.418;2023-11-19T11:32:16;0.45;;;0.30;;
50976;SDS011;36992;48.200;12.418;2023-11-19T11:34:58;0.40;;;0.10;;
50976;SDS011;36992;48.200;12.418;2023-11-19T11:37:35;0.40;;;0.10;;
50976;SDS011;36992;48.200;12.418;2023-11-19T11:40:06;0.25;;;0.10;;
50976;SDS011;36992;48.200;12.418;2023-11-19T11:42:35;0.65;;;0.10;;
50976;SDS011;36992;48.200;12.418;2023-11-19T11:45:04;0.50;;;0.10;;
50976;SDS011;36992;48.200;12.418;2023-11-19T11:50:31;1.13;;;0.10;;
50976;SDS011;36992;48.200;12.418;2023-11-19T11:53:16;0.45;;;0.13;;
50976;SDS011;36992;48.200;12.418;2023-11-19T11:58:35;1.05;;;0.20;;
50976;SDS011;36992;48.200;12.418;2023-11-19T12:01:04;0.32;;;0.00;;
50976;SDS011;36992;48.200;12.418;2023-11-19T12:03:34;0.20;;;0.10;;
50976;SDS011;36992;48.200;12.418;2023-11-19T12:06:00;0.30;;;0.10;;
50976;SDS011;36992;48.200;12.418;2023-11-19T12:08:28;1.65;;;0.13;;
50976;SDS011;36992;48.200;12.418;2023-11-19T12:10:56;0.20;;;0.00;;
50976;SDS011;36992;48.200;12.418;2023-11-19T12:13:24;0.10;;;0.00;;
50976;SDS011;36992;48.200;12.418;2023-11-19T12:16:09;0.63;;;0.10;;
50976;SDS011;36992;48.200;12.418;2023-11-19T12:18:38;0.35;;;0.10;;
50976;SDS011;36992;48.200;12.418;2023-11-19T12:21:09;0.47;;;0.10;;
50976;SDS011;36992;48.200;12.418;2023-11-19T12:23:35;0.88;;;0.20;;
50976;SDS011;36992;48.200;12.418;2023-11-19T12:26:20;0.10;;;0.10;;
50976;SDS011;36992;48.200;12.418;2023-11-19T12:28:56;0.20;;;0.10;;
50976;SDS011;36992;48.200;12.418;2023-11-19T12:31:25;0.30;;;0.10;;
50976;SDS011;36992;48.200;12.418;2023-11-19T12:33:51;0.45;;;0.10;;
50976;SDS011;36992;48.200;12.418;2023-11-19T12:36:18;0.60;;;0.20;;
50976;SDS011;36992;48.200;12.418;2023-11-19T12:38:53;1.50;;;0.40;;
50976;SDS011;36992;48.200;12.418;2023-11-19T12:44:22;1.00;;;0.40;;
50976;SDS011;36992;48.200;12.418;2023-11-19T12:47:03;1.77;;;0.30;;
50976;SDS011;36992;48.200;12.418;2023-11-19T12:49:34;0.77;;;0.20;;
50976;SDS011;36992;48.200;12.418;2023-11-19T12:52:15;2.58;;;0.63;;
50976;SDS011;36992;48.200;12.418;2023-11-19T12:54:57;0.88;;;0.30;;
50976;SDS011;36992;48.200;12.418;2023-11-19T13:00:20;0.90;;;0.30;;
50976;SDS011;36992;48.200;12.418;2023-11-19T13:02:52;2.13;;;0.70;;
50976;SDS011;36992;48.200;12.418;2023-11-19T13:08:13;5.40;;;1.60;;
50976;SDS011;36992;48.200;12.418;2023-11-19T13:10:51;2.78;;;1.08;;
50976;SDS011;36992;48.200;12.418;2023-11-19T13:13:30;2.25;;;0.20;;
50976;SDS011;36992;48.200;12.418;2023-11-19T13:16:08;0.38;;;0.10;;
50976;SDS011;36992;48.200;12.418;2023-11-19T13:18:55;1.33;;;0.13;;
50976;SDS011;36992;48.200;12.418;2023-11-19T13:21:29;0.63;;;0.10;;
50976;SDS011;36992;48.200;12.418;2023-11-19T13:24:22;0.65;;;0.10;;
50976;SDS011;36992;48.200;12.418;2023-11-19T13:26:52;0.45;;;0.10;;
50976;SDS011;36992;48.200;12.418;2023-11-19T13:29:51;0.25;;;0.10;;
50976;SDS011;36992;48.200;12.418;2023-11-19T13:32:38;0.10;;;0.00;;
50976;SDS011;36992;48.200;12.418;2023-11-19T13:35:14;0.05;;;0.00;;
50976;SDS011;36992;48.200;12.418;2023-11-19T13:38:05;0.30;;;0.10;;
50976;SDS011;36992;48.200;12.418;2023-11-19T13:40:33;0.10;;;0.00;;
50976;SDS011;36992;48.200;12.418;2023-11-19T13:43:21;0.45;;;0.10;;
50976;SDS011;36992;48.200;12.418;2023-11-19T13:45:56;0.10;;;0.00;;
50976;SDS011;36992;48.200;12.418;2023-11-19T13:53:53;0.10;;;0.00;;
50976;SDS011;36992;48.200;12.418;2023-11-19T13:56:24;0.10;;;0.10;;
50976;SDS011;36992;48.200;12.418;2023-11-19T13:58:59;0.30;;;0.10;;
50976;SDS011;36992;48.200;12.418;2023-11-19T14:01:32;4.63;;;1.58;;
50976;SDS011;36992;48.200;12.418;2023-11-19T14:06:54;0.63;;;0.25;;
50976;SDS011;36992;48.200;12.418;2023-11-19T14:09:22;0.50;;;0.20;;
50976;SDS011;36992;48.200;12.418;2023-11-19T14:12:01;0.57;;;0.20;;
50976;SDS011;36992;48.200;12.418;2023-11-19T14:14:41;1.15;;;0.28;;
50976;SDS011;36992;48.200;12.418;2023-11-19T14:17:08;0.80;;;0.20;;
50976;SDS011;36992;48.200;12.418;2023-11-19T14:19:40;0.30;;;0.10;;
50976;SDS011;36992;48.200;12.418;2023-11-19T14:22:17;2.45;;;0.88;;
50976;SDS011;36992;48.200;12.418;2023-11-19T14:24:46;1.25;;;0.40;;
50976;SDS011;36992;48.200;12.418;2023-11-19T14:27:17;0.63;;;0.30;;
50976;SDS011;36992;48.200;12.418;2023-11-19T14:29:44;0.57;;;0.17;;
50976;SDS011;36992;48.200;12.418;2023-11-19T14:32:35;0.20;;;0.10;;
50976;SDS011;36992;48.200;12.418;2023-11-19T14:35:16;0.40;;;0.20;;
50976;SDS011;36992;48.200;12.418;2023-11-19T14:37:47;0.43;;;0.10;;
50976;SDS011;36992;48.200;12.418;2023-11-19T14:40:21;2.05;;;0.10;;
50976;SDS011;36992;48.200;12.418;2023-11-19T14:43:11;0.25;;;0.10;;
50976;SDS011;36992;48.200;12.418;2023-11-19T14:45:40;0.10;;;0.08;;
50976;SDS011;36992;48.200;12.418;2023-11-19T14:48:07;0.52;;;0.20;;
50976;SDS011;36992;48.200;12.418;2023-11-19T14:50:33;0.55;;;0.10;;
50976;SDS011;36992;48.200;12.418;2023-11-19T14:53:01;1.52;;;0.10;;
50976;SDS011;36992;48.200;12.418;2023-11-19T14:55:28;0.88;;;0.10;;
50976;SDS011;36992;48.200;12.418;2023-11-19T14:57:54;0.30;;;0.10;;
50976;SDS011;36992;48.200;12.418;2023-11-19T15:00:21;0.35;;;0.10;;
50976;SDS011;36992;48.200;12.418;2023-11-19T15:02:48;0.28;;;0.10;;
50976;SDS011;36992;48.200;12.418;2023-11-19T15:05:15;0.13;;;0.10;;
50976;SDS011;36992;48.200;12.418;2023-11-19T15:07:41;0.55;;;0.10;;
50976;SDS011;36992;48.200;12.418;2023-11-19T15:10:09;0.65;;;0.10;;
50976;SDS011;36992;48.200;12.418;2023-11-19T15:12:37;0.35;;;0.10;;